sensor_id;sensor_type;location;lat;lon;timestamp;P1;durP1;ratioP1;P2;durP2;ratioP2
3101;SDS011;1561;42.666;23.392;2023-07-13T00:02:07;7.82;;;7.03;;
3101;SDS011;1561;42.666;23.392;2023-07-13T00:04:35;10.48;;;7.88;;
3101;SDS011;1561;42.666;23.392;2023-07-13T00:07:06;7.32;;;6.60;;
3101;SDS011;1561;42.666;23.392;2023-07-13T00:09:36;7.10;;;6.60;;
3101;SDS011;1561;42.666;23.392;2023-07-13T00:12:05;7.45;;;6.85;;
3101;SDS011;1561;42.666;23.392;2023-07-13T00:14:49;6.60;;;6.05;;
3101;SDS011;1561;42.666;23.392;2023-07-13T00:17:17;11.95;;;6.85;;
3101;SDS011;1561;42.666;23.392;2023-07-13T00:19:44;7.57;;;6.78;;
3101;SDS011;1561;42.666;23.392;2023-07-13T00:22:14;7.03;;;6.38;;
3101;SDS011;1561;42.666;23.392;2023-07-13T00:24:43;7.00;;;6.40;;
3101;SDS011;1561;42.666;23.392;2023-07-13T00:27:17;8.30;;;7.53;;
3101;SDS011;1561;42.666;23.392;2023-07-13T00:29:44;7.35;;;6.65;;
3101;SDS011;1561;42.666;23.392;2023-07-13T00:32:13;6.65;;;6.00;;
3101;SDS011;1561;42.666;23.392;2023-07-13T00:34:41;7.75;;;6.88;;
3101;SDS011;1561;42.666;23.392;2023-07-13T00:37:10;7.57;;;6.90;;
3101;SDS011;1561;42.666;23.392;2023-07-13T00:39:38;7.53;;;6.82;;
3101;SDS011;1561;42.666;23.392;2023-07-13T00:42:07;7.63;;;6.93;;
3101;SDS011;1561;42.666;23.392;2023-07-13T00:44:36;7.40;;;6.78;;
3101;SDS011;1561;42.666;23.392;2023-07-13T00:47:06;7.47;;;6.78;;
3101;SDS011;1561;42.666;23.392;2023-07-13T00:49:43;7.28;;;6.68;;
3101;SDS011;1561;42.666;23.392;2023-07-13T00:52:11;7.82;;;7.13;;
3101;SDS011;1561;42.666;23.392;2023-07-13T00:54:39;7.85;;;7.20;;
3101;SDS011;1561;42.666;23.392;2023-07-13T00:57:11;8.02;;;7.28;;
3101;SDS011;1561;42.666;23.392;2023-07-13T00:59:45;9.00;;;7.75;;
3101;SDS011;1561;42.666;23.392;2023-07-13T01:02:17;9.63;;;7.70;;
3101;SDS011;1561;42.666;23.392;2023-07-13T01:04:49;8.02;;;7.22;;
3101;SDS011;1561;42.666;23.392;2023-07-13T01:07:16;8.35;;;7.65;;
3101;SDS011;1561;42.666;23.392;2023-07-13T01:09:45;8.52;;;7.72;;
3101;SDS011;1561;42.666;23.392;2023-07-13T01:12:13;9.30;;;7.38;;
3101;SDS011;1561;42.666;23.392;2023-07-13T01:14:42;12.32;;;8.23;;
3101;SDS011;1561;42.666;23.392;2023-07-13T01:17:10;7.90;;;7.30;;
3101;SDS011;1561;42.666;23.392;2023-07-13T01:19:42;8.95;;;8.05;;
3101;SDS011;1561;42.666;23.392;2023-07-13T01:22:12;8.13;;;7.43;;
3101;SDS011;1561;42.666;23.392;2023-07-13T01:24:42;7.75;;;7.15;;
3101;SDS011;1561;42.666;23.392;2023-07-13T01:27:16;8.40;;;7.32;;
3101;SDS011;1561;42.666;23.392;2023-07-13T01:29:48;7.70;;;6.85;;
3101;SDS011;1561;42.666;23.392;2023-07-13T01:32:17;8.25;;;7.05;;
3101;SDS011;1561;42.666;23.392;2023-07-13T01:34:47;8.13;;;7.35;;
3101;SDS011;1561;42.666;23.392;2023-07-13T01:37:16;10.23;;;7.00;;
3101;SDS011;1561;42.666;23.392;2023-07-13T01:39:43;8.00;;;7.35;;
3101;SDS011;1561;42.666;23.392;2023-07-13T01:42:10;7.72;;;7.13;;
3101;SDS011;1561;42.666;23.392;2023-07-13T01:44:41;11.95;;;7.50;;
3101;SDS011;1561;42.666;23.392;2023-07-13T01:47:08;8.23;;;7.53;;
3101;SDS011;1561;42.666;23.392;2023-07-13T01:49:37;8.35;;;7.55;;
3101;SDS011;1561;42.666;23.392;2023-07-13T01:52:05;7.80;;;7.00;;
3101;SDS011;1561;42.666;23.392;2023-07-13T01:54:33;8.38;;;7.45;;
3101;SDS011;1561;42.666;23.392;2023-07-13T01:57:02;8.18;;;6.60;;
3101;SDS011;1561;42.666;23.392;2023-07-13T01:59:32;11.23;;;7.90;;
3101;SDS011;1561;42.666;23.392;2023-07-13T02:02:09;8.30;;;7.50;;
3101;SDS011;1561;42.666;23.392;2023-07-13T02:04:39;8.07;;;7.25;;
3101;SDS011;1561;42.666;23.392;2023-07-13T02:07:12;7.95;;;7.15;;
3101;SDS011;1561;42.666;23.392;2023-07-13T02:09:45;9.50;;;8.30;;
3101;SDS011;1561;42.666;23.392;2023-07-13T02:12:13;8.65;;;7.85;;
3101;SDS011;1561;42.666;23.392;2023-07-13T02:14:40;8.65;;;7.75;;
3101;SDS011;1561;42.666;23.392;2023-07-13T02:17:08;8.80;;;8.00;;
3101;SDS011;1561;42.666;23.392;2023-07-13T02:19:39;9.27;;;7.32;;
3101;SDS011;1561;42.666;23.392;2023-07-13T02:22:09;8.02;;;7.43;;
3101;SDS011;1561;42.666;23.392;2023-07-13T02:24:36;9.43;;;8.30;;
3101;SDS011;1561;42.666;23.392;2023-07-13T02:27:06;8.95;;;8.05;;
3101;SDS011;1561;42.666;23.392;2023-07-13T02:29:35;8.95;;;8.05;;
3101;SDS011;1561;42.666;23.392;2023-07-13T02:32:05;9.15;;;8.20;;
3101;SDS011;1561;42.666;23.392;2023-07-13T02:34:33;9.32;;;7.95;;
3101;SDS011;1561;42.666;23.392;2023-07-13T02:37:01;7.85;;;7.22;;
3101;SDS011;1561;42.666;23.392;2023-07-13T02:39:40;8.30;;;7.60;;
3101;SDS011;1561;42.666;23.392;2023-07-13T02:42:11;8.70;;;8.00;;
3101;SDS011;1561;42.666;23.392;2023-07-13T02:44:38;7.45;;;6.85;;
3101;SDS011;1561;42.666;23.392;2023-07-13T02:47:07;8.88;;;8.13;;
3101;SDS011;1561;42.666;23.392;2023-07-13T02:49:36;8.48;;;7.88;;
3101;SDS011;1561;42.666;23.392;2023-07-13T02:52:13;9.13;;;8.40;;
3101;SDS011;1561;42.666;23.392;2023-07-13T02:54:41;9.15;;;8.23;;
3101;SDS011;1561;42.666;23.392;2023-07-13T02:57:09;9.93;;;7.88;;
3101;SDS011;1561;42.666;23.392;2023-07-13T02:59:39;8.90;;;8.10;;
3101;SDS011;1561;42.666;23.392;2023-07-13T03:02:06;9.30;;;8.50;;
3101;SDS011;1561;42.666;23.392;2023-07-13T03:04:37;9.45;;;8.55;;
3101;SDS011;1561;42.666;23.392;2023-07-13T03:07:06;10.98;;;8.65;;
3101;SDS011;1561;42.666;23.392;2023-07-13T03:09:36;10.13;;;9.02;;
3101;SDS011;1561;42.666;23.392;2023-07-13T03:12:20;9.75;;;8.85;;
3101;SDS011;1561;42.666;23.392;2023-07-13T03:14:54;10.20;;;9.20;;
3101;SDS011;1561;42.666;23.392;2023-07-13T03:17:23;11.65;;;9.05;;
3101;SDS011;1561;42.666;23.392;2023-07-13T03:19:50;9.40;;;8.50;;
3101;SDS011;1561;42.666;23.392;2023-07-13T03:22:17;10.80;;;8.20;;
3101;SDS011;1561;42.666;23.392;2023-07-13T03:24:45;10.80;;;8.18;;
3101;SDS011;1561;42.666;23.392;2023-07-13T03:27:37;10.10;;;8.93;;
3101;SDS011;1561;42.666;23.392;2023-07-13T03:30:05;9.20;;;8.30;;
3101;SDS011;1561;42.666;23.392;2023-07-13T03:32:34;8.88;;;8.05;;
3101;SDS011;1561;42.666;23.392;2023-07-13T03:35:03;9.55;;;8.68;;
3101;SDS011;1561;42.666;23.392;2023-07-13T03:37:31;11.02;;;8.20;;
3101;SDS011;1561;42.666;23.392;2023-07-13T03:40:10;9.25;;;8.43;;
3101;SDS011;1561;42.666;23.392;2023-07-13T03:42:43;9.48;;;8.48;;
3101;SDS011;1561;42.666;23.392;2023-07-13T03:45:10;9.40;;;8.63;;
3101;SDS011;1561;42.666;23.392;2023-07-13T03:47:38;9.65;;;8.65;;
3101;SDS011;1561;42.666;23.392;2023-07-13T03:50:06;10.30;;;9.30;;
3101;SDS011;1561;42.666;23.392;2023-07-13T03:52:37;11.30;;;8.40;;
3101;SDS011;1561;42.666;23.392;2023-07-13T03:55:08;9.52;;;8.35;;
3101;SDS011;1561;42.666;23.392;2023-07-13T03:57:38;9.23;;;8.32;;
3101;SDS011;1561;42.666;23.392;2023-07-13T04:00:09;10.13;;;9.18;;
3101;SDS011;1561;42.666;23.392;2023-07-13T04:02:38;9.15;;;8.35;;
3101;SDS011;1561;42.666;23.392;2023-07-13T04:05:08;11.60;;;9.02;;
3101;SDS011;1561;42.666;23.392;2023-07-13T04:07:37;9.23;;;8.43;;
3101;SDS011;1561;42.666;23.392;2023-07-13T04:10:08;10.15;;;9.18;;
3101;SDS011;1561;42.666;23.392;2023-07-13T04:12:41;9.48;;;8.57;;
3101;SDS011;1561;42.666;23.392;2023-07-13T04:15:12;9.43;;;8.63;;
3101;SDS011;1561;42.666;23.392;2023-07-13T04:17:39;10.32;;;9.20;;
3101;SDS011;1561;42.666;23.392;2023-07-13T04:20:07;9.73;;;8.82;;
3101;SDS011;1561;42.666;23.392;2023-07-13T04:22:36;15.18;;;9.63;;
3101;SDS011;1561;42.666;23.392;2023-07-13T04:25:07;10.43;;;9.48;;
3101;SDS011;1561;42.666;23.392;2023-07-13T04:27:35;10.95;;;9.32;;
3101;SDS011;1561;42.666;23.392;2023-07-13T04:30:02;9.32;;;8.10;;
3101;SDS011;1561;42.666;23.392;2023-07-13T04:32:32;11.05;;;10.05;;
3101;SDS011;1561;42.666;23.392;2023-07-13T04:35:00;10.70;;;9.80;;
3101;SDS011;1561;42.666;23.392;2023-07-13T04:37:29;14.25;;;10.55;;
3101;SDS011;1561;42.666;23.392;2023-07-13T04:40:00;10.07;;;9.23;;
3101;SDS011;1561;42.666;23.392;2023-07-13T04:42:29;10.50;;;9.27;;
3101;SDS011;1561;42.666;23.392;2023-07-13T04:44:57;12.40;;;10.88;;
3101;SDS011;1561;42.666;23.392;2023-07-13T04:47:24;10.52;;;9.45;;
3101;SDS011;1561;42.666;23.392;2023-07-13T04:49:53;10.30;;;9.32;;
3101;SDS011;1561;42.666;23.392;2023-07-13T04:52:24;10.55;;;9.65;;
3101;SDS011;1561;42.666;23.392;2023-07-13T04:54:52;13.80;;;11.93;;
3101;SDS011;1561;42.666;23.392;2023-07-13T04:57:27;11.07;;;9.80;;
3101;SDS011;1561;42.666;23.392;2023-07-13T05:02:46;12.93;;;10.30;;
3101;SDS011;1561;42.666;23.392;2023-07-13T05:05:23;13.55;;;12.05;;
3101;SDS011;1561;42.666;23.392;2023-07-13T05:07:51;11.20;;;9.95;;
3101;SDS011;1561;42.666;23.392;2023-07-13T05:10:22;10.55;;;9.45;;
3101;SDS011;1561;42.666;23.392;2023-07-13T05:12:50;10.95;;;10.00;;
3101;SDS011;1561;42.666;23.392;2023-07-13T05:15:22;13.38;;;9.55;;
3101;SDS011;1561;42.666;23.392;2023-07-13T05:17:53;11.07;;;10.05;;
3101;SDS011;1561;42.666;23.392;2023-07-13T05:20:23;11.70;;;10.35;;
3101;SDS011;1561;42.666;23.392;2023-07-13T05:22:52;11.85;;;10.63;;
3101;SDS011;1561;42.666;23.392;2023-07-13T05:25:25;12.20;;;10.73;;
3101;SDS011;1561;42.666;23.392;2023-07-13T05:27:55;12.15;;;11.00;;
3101;SDS011;1561;42.666;23.392;2023-07-13T05:30:23;15.52;;;11.70;;
3101;SDS011;1561;42.666;23.392;2023-07-13T05:32:53;15.82;;;13.25;;
3101;SDS011;1561;42.666;23.392;2023-07-13T05:35:22;15.23;;;10.52;;
3101;SDS011;1561;42.666;23.392;2023-07-13T05:37:54;15.60;;;12.48;;
3101;SDS011;1561;42.666;23.392;2023-07-13T05:40:41;14.30;;;12.82;;
3101;SDS011;1561;42.666;23.392;2023-07-13T05:43:11;12.05;;;10.70;;
3101;SDS011;1561;42.666;23.392;2023-07-13T05:45:40;11.07;;;10.00;;
3101;SDS011;1561;42.666;23.392;2023-07-13T05:48:10;14.85;;;12.68;;
3101;SDS011;1561;42.666;23.392;2023-07-13T05:50:38;15.25;;;13.80;;
3101;SDS011;1561;42.666;23.392;2023-07-13T05:53:05;14.32;;;12.80;;
3101;SDS011;1561;42.666;23.392;2023-07-13T05:55:40;10.40;;;9.60;;
3101;SDS011;1561;42.666;23.392;2023-07-13T05:58:08;13.65;;;12.23;;
3101;SDS011;1561;42.666;23.392;2023-07-13T06:00:35;14.60;;;12.07;;
3101;SDS011;1561;42.666;23.392;2023-07-13T06:03:04;12.90;;;9.82;;
3101;SDS011;1561;42.666;23.392;2023-07-13T06:05:32;17.42;;;11.27;;
3101;SDS011;1561;42.666;23.392;2023-07-13T06:10:45;15.02;;;13.73;;
3101;SDS011;1561;42.666;23.392;2023-07-13T06:13:13;13.65;;;11.13;;
3101;SDS011;1561;42.666;23.392;2023-07-13T06:15:41;11.65;;;9.80;;
3101;SDS011;1561;42.666;23.392;2023-07-13T06:18:07;14.07;;;10.38;;
3101;SDS011;1561;42.666;23.392;2023-07-13T06:20:38;13.63;;;11.32;;
3101;SDS011;1561;42.666;23.392;2023-07-13T06:23:10;12.20;;;11.10;;
3101;SDS011;1561;42.666;23.392;2023-07-13T06:25:38;11.05;;;9.98;;
3101;SDS011;1561;42.666;23.392;2023-07-13T06:28:07;15.65;;;12.00;;
3101;SDS011;1561;42.666;23.392;2023-07-13T06:30:37;12.57;;;11.38;;
3101;SDS011;1561;42.666;23.392;2023-07-13T06:33:15;14.95;;;11.75;;
3101;SDS011;1561;42.666;23.392;2023-07-13T06:35:45;15.43;;;10.90;;
3101;SDS011;1561;42.666;23.392;2023-07-13T06:38:19;11.80;;;10.70;;
3101;SDS011;1561;42.666;23.392;2023-07-13T06:40:48;14.57;;;10.95;;
3101;SDS011;1561;42.666;23.392;2023-07-13T06:43:15;14.13;;;10.75;;
3101;SDS011;1561;42.666;23.392;2023-07-13T06:45:45;12.68;;;10.85;;
3101;SDS011;1561;42.666;23.392;2023-07-13T06:48:14;18.15;;;10.98;;
3101;SDS011;1561;42.666;23.392;2023-07-13T06:50:44;13.52;;;10.82;;
3101;SDS011;1561;42.666;23.392;2023-07-13T06:53:12;13.27;;;10.88;;
3101;SDS011;1561;42.666;23.392;2023-07-13T06:55:39;13.70;;;12.00;;
3101;SDS011;1561;42.666;23.392;2023-07-13T06:58:22;15.82;;;12.38;;
3101;SDS011;1561;42.666;23.392;2023-07-13T07:00:50;15.38;;;11.55;;
3101;SDS011;1561;42.666;23.392;2023-07-13T07:03:21;14.95;;;10.73;;
3101;SDS011;1561;42.666;23.392;2023-07-13T07:05:50;12.90;;;11.57;;
3101;SDS011;1561;42.666;23.392;2023-07-13T07:08:19;15.98;;;11.75;;
3101;SDS011;1561;42.666;23.392;2023-07-13T07:10:49;13.40;;;12.10;;
3101;SDS011;1561;42.666;23.392;2023-07-13T07:13:22;18.20;;;12.27;;
3101;SDS011;1561;42.666;23.392;2023-07-13T07:15:49;20.75;;;11.32;;
3101;SDS011;1561;42.666;23.392;2023-07-13T07:18:17;13.68;;;11.18;;
3101;SDS011;1561;42.666;23.392;2023-07-13T07:20:47;15.20;;;11.82;;
3101;SDS011;1561;42.666;23.392;2023-07-13T07:23:15;12.60;;;11.38;;
3101;SDS011;1561;42.666;23.392;2023-07-13T07:25:42;14.90;;;13.40;;
3101;SDS011;1561;42.666;23.392;2023-07-13T07:28:12;16.67;;;12.23;;
3101;SDS011;1561;42.666;23.392;2023-07-13T07:30:49;14.45;;;11.90;;
3101;SDS011;1561;42.666;23.392;2023-07-13T07:33:20;12.65;;;11.45;;
3101;SDS011;1561;42.666;23.392;2023-07-13T07:35:52;16.25;;;12.45;;
3101;SDS011;1561;42.666;23.392;2023-07-13T07:38:20;13.45;;;12.00;;
3101;SDS011;1561;42.666;23.392;2023-07-13T07:40:49;13.18;;;11.75;;
3101;SDS011;1561;42.666;23.392;2023-07-13T07:43:24;12.90;;;11.70;;
3101;SDS011;1561;42.666;23.392;2023-07-13T07:45:52;12.68;;;11.38;;
3101;SDS011;1561;42.666;23.392;2023-07-13T07:48:24;13.57;;;12.48;;
3101;SDS011;1561;42.666;23.392;2023-07-13T07:50:54;13.68;;;12.18;;
3101;SDS011;1561;42.666;23.392;2023-07-13T07:53:25;15.68;;;12.23;;
3101;SDS011;1561;42.666;23.392;2023-07-13T07:55:55;12.68;;;11.57;;
3101;SDS011;1561;42.666;23.392;2023-07-13T07:58:25;13.65;;;12.25;;
3101;SDS011;1561;42.666;23.392;2023-07-13T08:01:05;16.15;;;12.25;;
3101;SDS011;1561;42.666;23.392;2023-07-13T08:03:34;14.00;;;12.55;;
3101;SDS011;1561;42.666;23.392;2023-07-13T08:06:05;13.27;;;12.00;;
3101;SDS011;1561;42.666;23.392;2023-07-13T08:08:31;12.43;;;11.18;;
3101;SDS011;1561;42.666;23.392;2023-07-13T08:11:02;12.93;;;11.43;;
3101;SDS011;1561;42.666;23.392;2023-07-13T08:13:30;12.35;;;11.15;;
3101;SDS011;1561;42.666;23.392;2023-07-13T08:16:05;14.23;;;11.18;;
3101;SDS011;1561;42.666;23.392;2023-07-13T08:18:32;11.77;;;10.57;;
3101;SDS011;1561;42.666;23.392;2023-07-13T08:21:08;12.90;;;11.38;;
3101;SDS011;1561;42.666;23.392;2023-07-13T08:23:37;11.82;;;10.93;;
3101;SDS011;1561;42.666;23.392;2023-07-13T08:26:10;12.27;;;11.07;;
3101;SDS011;1561;42.666;23.392;2023-07-13T08:28:40;16.17;;;11.95;;
3101;SDS011;1561;42.666;23.392;2023-07-13T08:31:12;13.95;;;12.55;;
3101;SDS011;1561;42.666;23.392;2023-07-13T08:33:40;14.13;;;11.68;;
3101;SDS011;1561;42.666;23.392;2023-07-13T08:36:08;11.32;;;10.15;;
3101;SDS011;1561;42.666;23.392;2023-07-13T08:38:38;12.20;;;11.07;;
3101;SDS011;1561;42.666;23.392;2023-07-13T08:41:10;12.50;;;11.30;;
3101;SDS011;1561;42.666;23.392;2023-07-13T08:43:47;11.32;;;10.43;;
3101;SDS011;1561;42.666;23.392;2023-07-13T08:46:20;12.48;;;11.55;;
3101;SDS011;1561;42.666;23.392;2023-07-13T08:48:53;12.82;;;11.57;;
3101;SDS011;1561;42.666;23.392;2023-07-13T08:51:33;12.43;;;11.40;;
3101;SDS011;1561;42.666;23.392;2023-07-13T08:54:14;13.93;;;10.88;;
3101;SDS011;1561;42.666;23.392;2023-07-13T08:56:46;11.45;;;10.38;;
3101;SDS011;1561;42.666;23.392;2023-07-13T08:59:18;18.13;;;13.88;;
3101;SDS011;1561;42.666;23.392;2023-07-13T09:02:04;12.57;;;11.40;;
3101;SDS011;1561;42.666;23.392;2023-07-13T09:04:48;12.23;;;11.13;;
3101;SDS011;1561;42.666;23.392;2023-07-13T09:07:29;13.88;;;11.20;;
3101;SDS011;1561;42.666;23.392;2023-07-13T09:10:09;24.10;;;12.20;;
3101;SDS011;1561;42.666;23.392;2023-07-13T09:12:51;12.07;;;10.82;;
3101;SDS011;1561;42.666;23.392;2023-07-13T09:15:26;13.18;;;11.90;;
3101;SDS011;1561;42.666;23.392;2023-07-13T09:17:59;19.05;;;11.07;;
3101;SDS011;1561;42.666;23.392;2023-07-13T09:20:33;14.43;;;11.35;;
3101;SDS011;1561;42.666;23.392;2023-07-13T09:23:04;13.23;;;12.02;;
3101;SDS011;1561;42.666;23.392;2023-07-13T09:25:44;13.30;;;12.02;;
3101;SDS011;1561;42.666;23.392;2023-07-13T09:28:17;13.52;;;12.35;;
3101;SDS011;1561;42.666;23.392;2023-07-13T09:30:50;15.27;;;12.82;;
3101;SDS011;1561;42.666;23.392;2023-07-13T09:33:24;13.38;;;12.18;;
3101;SDS011;1561;42.666;23.392;2023-07-13T09:35:54;14.68;;;13.40;;
3101;SDS011;1561;42.666;23.392;2023-07-13T09:38:22;12.98;;;11.77;;
3101;SDS011;1561;42.666;23.392;2023-07-13T09:40:59;12.95;;;11.52;;
3101;SDS011;1561;42.666;23.392;2023-07-13T09:43:36;14.43;;;11.65;;
3101;SDS011;1561;42.666;23.392;2023-07-13T09:46:02;12.63;;;11.43;;
3101;SDS011;1561;42.666;23.392;2023-07-13T09:48:37;15.80;;;12.88;;
3101;SDS011;1561;42.666;23.392;2023-07-13T09:51:07;13.68;;;12.40;;
3101;SDS011;1561;42.666;23.392;2023-07-13T09:53:42;15.55;;;12.02;;
3101;SDS011;1561;42.666;23.392;2023-07-13T09:56:18;13.07;;;11.88;;
3101;SDS011;1561;42.666;23.392;2023-07-13T09:58:47;15.80;;;11.80;;
3101;SDS011;1561;42.666;23.392;2023-07-13T10:01:30;15.68;;;12.10;;
3101;SDS011;1561;42.666;23.392;2023-07-13T10:04:03;13.93;;;12.00;;
3101;SDS011;1561;42.666;23.392;2023-07-13T10:06:40;14.10;;;12.30;;
3101;SDS011;1561;42.666;23.392;2023-07-13T10:09:08;13.50;;;12.13;;
3101;SDS011;1561;42.666;23.392;2023-07-13T10:11:39;16.27;;;13.77;;
3101;SDS011;1561;42.666;23.392;2023-07-13T10:14:10;13.30;;;12.20;;
3101;SDS011;1561;42.666;23.392;2023-07-13T10:16:45;12.60;;;11.43;;
3101;SDS011;1561;42.666;23.392;2023-07-13T10:19:17;14.70;;;13.30;;
3101;SDS011;1561;42.666;23.392;2023-07-13T10:21:54;15.90;;;12.63;;
3101;SDS011;1561;42.666;23.392;2023-07-13T10:24:26;13.00;;;11.57;;
3101;SDS011;1561;42.666;23.392;2023-07-13T10:26:57;12.85;;;11.75;;
3101;SDS011;1561;42.666;23.392;2023-07-13T10:29:38;11.65;;;10.50;;
3101;SDS011;1561;42.666;23.392;2023-07-13T10:32:10;11.93;;;11.02;;
3101;SDS011;1561;42.666;23.392;2023-07-13T10:34:43;13.45;;;12.35;;
3101;SDS011;1561;42.666;23.392;2023-07-13T10:37:19;13.65;;;12.32;;
3101;SDS011;1561;42.666;23.392;2023-07-13T10:39:51;12.77;;;11.77;;
3101;SDS011;1561;42.666;23.392;2023-07-13T10:42:26;17.52;;;11.68;;
3101;SDS011;1561;42.666;23.392;2023-07-13T10:45:08;14.60;;;12.10;;
3101;SDS011;1561;42.666;23.392;2023-07-13T10:47:40;14.20;;;12.77;;
3101;SDS011;1561;42.666;23.392;2023-07-13T10:50:17;13.00;;;11.75;;
3101;SDS011;1561;42.666;23.392;2023-07-13T10:52:51;12.30;;;11.35;;
3101;SDS011;1561;42.666;23.392;2023-07-13T10:55:41;12.40;;;11.15;;
3101;SDS011;1561;42.666;23.392;2023-07-13T10:58:29;10.52;;;9.52;;
3101;SDS011;1561;42.666;23.392;2023-07-13T11:01:02;10.55;;;8.00;;
3101;SDS011;1561;42.666;23.392;2023-07-13T11:03:35;8.90;;;7.82;;
3101;SDS011;1561;42.666;23.392;2023-07-13T11:06:33;9.40;;;8.30;;
3101;SDS011;1561;42.666;23.392;2023-07-13T11:09:17;11.75;;;7.38;;
3101;SDS011;1561;42.666;23.392;2023-07-13T11:11:48;10.07;;;8.63;;
3101;SDS011;1561;42.666;23.392;2023-07-13T11:14:27;8.15;;;7.50;;
3101;SDS011;1561;42.666;23.392;2023-07-13T11:20:21;12.13;;;10.05;;
3101;SDS011;1561;42.666;23.392;2023-07-13T11:22:53;9.50;;;8.80;;
3101;SDS011;1561;42.666;23.392;2023-07-13T11:25:45;9.38;;;8.30;;
3101;SDS011;1561;42.666;23.392;2023-07-13T11:28:22;9.75;;;7.72;;
3101;SDS011;1561;42.666;23.392;2023-07-13T11:31:03;7.43;;;6.72;;
3101;SDS011;1561;42.666;23.392;2023-07-13T11:36:30;11.82;;;7.90;;
3101;SDS011;1561;42.666;23.392;2023-07-13T11:39:12;9.25;;;8.38;;
3101;SDS011;1561;42.666;23.392;2023-07-13T11:41:49;7.40;;;6.65;;
3101;SDS011;1561;42.666;23.392;2023-07-13T11:44:19;13.43;;;7.72;;
3101;SDS011;1561;42.666;23.392;2023-07-13T11:46:52;13.00;;;8.55;;
3101;SDS011;1561;42.666;23.392;2023-07-13T11:49:26;8.75;;;7.57;;
3101;SDS011;1561;42.666;23.392;2023-07-13T11:51:59;8.57;;;7.88;;
3101;SDS011;1561;42.666;23.392;2023-07-13T11:54:43;10.18;;;7.13;;
3101;SDS011;1561;42.666;23.392;2023-07-13T11:57:19;8.32;;;7.10;;
3101;SDS011;1561;42.666;23.392;2023-07-13T11:59:56;8.70;;;7.80;;
3101;SDS011;1561;42.666;23.392;2023-07-13T12:02:28;9.90;;;7.75;;
3101;SDS011;1561;42.666;23.392;2023-07-13T12:04:59;7.72;;;7.03;;
3101;SDS011;1561;42.666;23.392;2023-07-13T12:07:31;14.32;;;9.63;;
3101;SDS011;1561;42.666;23.392;2023-07-13T12:10:13;10.40;;;9.40;;
3101;SDS011;1561;42.666;23.392;2023-07-13T12:12:47;9.45;;;8.57;;
3101;SDS011;1561;42.666;23.392;2023-07-13T12:15:18;9.23;;;8.02;;
3101;SDS011;1561;42.666;23.392;2023-07-13T12:18:00;9.20;;;8.30;;
3101;SDS011;1561;42.666;23.392;2023-07-13T12:20:30;9.82;;;8.02;;
3101;SDS011;1561;42.666;23.392;2023-07-13T12:23:04;9.18;;;8.38;;
3101;SDS011;1561;42.666;23.392;2023-07-13T12:25:45;12.88;;;7.75;;
3101;SDS011;1561;42.666;23.392;2023-07-13T12:28:21;9.10;;;8.13;;
3101;SDS011;1561;42.666;23.392;2023-07-13T12:30:59;10.20;;;7.47;;
3101;SDS011;1561;42.666;23.392;2023-07-13T12:33:29;9.20;;;8.30;;
3101;SDS011;1561;42.666;23.392;2023-07-13T12:36:08;8.20;;;7.32;;
3101;SDS011;1561;42.666;23.392;2023-07-13T12:38:41;8.40;;;7.55;;
3101;SDS011;1561;42.666;23.392;2023-07-13T12:41:16;12.82;;;9.15;;
3101;SDS011;1561;42.666;23.392;2023-07-13T12:43:46;8.77;;;7.40;;
3101;SDS011;1561;42.666;23.392;2023-07-13T12:46:17;8.65;;;7.70;;
3101;SDS011;1561;42.666;23.392;2023-07-13T12:48:49;11.95;;;8.68;;
3101;SDS011;1561;42.666;23.392;2023-07-13T12:51:21;9.77;;;7.80;;
3101;SDS011;1561;42.666;23.392;2023-07-13T12:53:56;12.52;;;8.55;;
3101;SDS011;1561;42.666;23.392;2023-07-13T12:56:32;10.50;;;8.25;;
3101;SDS011;1561;42.666;23.392;2023-07-13T12:59:02;13.00;;;9.20;;
3101;SDS011;1561;42.666;23.392;2023-07-13T13:01:32;11.65;;;8.35;;
3101;SDS011;1561;42.666;23.392;2023-07-13T13:04:04;8.38;;;7.57;;
3101;SDS011;1561;42.666;23.392;2023-07-13T13:06:35;12.25;;;8.20;;
3101;SDS011;1561;42.666;23.392;2023-07-13T13:09:10;9.77;;;8.50;;
3101;SDS011;1561;42.666;23.392;2023-07-13T13:11:46;9.93;;;8.18;;
3101;SDS011;1561;42.666;23.392;2023-07-13T13:14:18;10.82;;;9.10;;
3101;SDS011;1561;42.666;23.392;2023-07-13T13:16:48;11.32;;;9.40;;
3101;SDS011;1561;42.666;23.392;2023-07-13T13:19:16;10.75;;;9.85;;
3101;SDS011;1561;42.666;23.392;2023-07-13T13:21:52;10.20;;;9.00;;
3101;SDS011;1561;42.666;23.392;2023-07-13T13:24:24;9.55;;;8.65;;
3101;SDS011;1561;42.666;23.392;2023-07-13T13:26:56;11.18;;;9.82;;
3101;SDS011;1561;42.666;23.392;2023-07-13T13:29:24;12.20;;;9.10;;
3101;SDS011;1561;42.666;23.392;2023-07-13T13:31:55;13.48;;;9.20;;
3101;SDS011;1561;42.666;23.392;2023-07-13T13:34:23;10.80;;;9.48;;
3101;SDS011;1561;42.666;23.392;2023-07-13T13:36:54;12.20;;;9.02;;
3101;SDS011;1561;42.666;23.392;2023-07-13T13:39:28;9.80;;;8.85;;
3101;SDS011;1561;42.666;23.392;2023-07-13T13:42:03;10.60;;;9.55;;
3101;SDS011;1561;42.666;23.392;2023-07-13T13:44:34;9.85;;;9.00;;
3101;SDS011;1561;42.666;23.392;2023-07-13T13:47:03;12.98;;;10.38;;
3101;SDS011;1561;42.666;23.392;2023-07-13T13:49:36;10.65;;;9.30;;
3101;SDS011;1561;42.666;23.392;2023-07-13T13:52:04;10.10;;;9.10;;
3101;SDS011;1561;42.666;23.392;2023-07-13T13:54:36;10.80;;;9.38;;
3101;SDS011;1561;42.666;23.392;2023-07-13T13:57:05;12.95;;;10.13;;
3101;SDS011;1561;42.666;23.392;2023-07-13T13:59:37;14.05;;;8.60;;
3101;SDS011;1561;42.666;23.392;2023-07-13T14:02:11;10.13;;;9.18;;
3101;SDS011;1561;42.666;23.392;2023-07-13T14:04:50;12.35;;;9.15;;
3101;SDS011;1561;42.666;23.392;2023-07-13T14:07:21;10.82;;;9.30;;
3101;SDS011;1561;42.666;23.392;2023-07-13T14:09:52;9.20;;;7.93;;
3101;SDS011;1561;42.666;23.392;2023-07-13T14:12:22;9.40;;;8.50;;
3101;SDS011;1561;42.666;23.392;2023-07-13T14:14:51;9.68;;;8.88;;
3101;SDS011;1561;42.666;23.392;2023-07-13T14:17:24;15.30;;;9.27;;
3101;SDS011;1561;42.666;23.392;2023-07-13T14:19:55;13.48;;;9.00;;
3101;SDS011;1561;42.666;23.392;2023-07-13T14:22:24;13.10;;;8.43;;
3101;SDS011;1561;42.666;23.392;2023-07-13T14:24:53;9.43;;;8.50;;
3101;SDS011;1561;42.666;23.392;2023-07-13T14:27:26;9.65;;;8.70;;
3101;SDS011;1561;42.666;23.392;2023-07-13T14:29:54;9.85;;;8.85;;
3101;SDS011;1561;42.666;23.392;2023-07-13T14:32:26;9.35;;;8.55;;
3101;SDS011;1561;42.666;23.392;2023-07-13T14:34:55;13.10;;;9.70;;
3101;SDS011;1561;42.666;23.392;2023-07-13T14:37:23;11.10;;;10.15;;
3101;SDS011;1561;42.666;23.392;2023-07-13T14:39:50;10.88;;;9.50;;
3101;SDS011;1561;42.666;23.392;2023-07-13T14:42:22;16.52;;;9.48;;
3101;SDS011;1561;42.666;23.392;2023-07-13T14:45:11;10.30;;;9.15;;
3101;SDS011;1561;42.666;23.392;2023-07-13T14:47:40;11.30;;;10.18;;
3101;SDS011;1561;42.666;23.392;2023-07-13T14:50:12;10.65;;;8.32;;
3101;SDS011;1561;42.666;23.392;2023-07-13T14:52:41;10.50;;;9.32;;
3101;SDS011;1561;42.666;23.392;2023-07-13T14:55:09;9.93;;;9.02;;
3101;SDS011;1561;42.666;23.392;2023-07-13T14:57:37;9.38;;;8.20;;
3101;SDS011;1561;42.666;23.392;2023-07-13T15:00:08;14.45;;;9.15;;
3101;SDS011;1561;42.666;23.392;2023-07-13T15:02:40;9.60;;;7.90;;
3101;SDS011;1561;42.666;23.392;2023-07-13T15:05:15;11.38;;;9.10;;
3101;SDS011;1561;42.666;23.392;2023-07-13T15:07:50;11.07;;;9.68;;
3101;SDS011;1561;42.666;23.392;2023-07-13T15:10:20;9.85;;;9.05;;
3101;SDS011;1561;42.666;23.392;2023-07-13T15:12:53;11.32;;;8.82;;
3101;SDS011;1561;42.666;23.392;2023-07-13T15:15:30;15.13;;;8.10;;
3101;SDS011;1561;42.666;23.392;2023-07-13T15:17:59;12.15;;;8.80;;
3101;SDS011;1561;42.666;23.392;2023-07-13T15:20:27;10.20;;;8.60;;
3101;SDS011;1561;42.666;23.392;2023-07-13T15:23:00;10.95;;;8.27;;
3101;SDS011;1561;42.666;23.392;2023-07-13T15:25:29;9.07;;;7.18;;
3101;SDS011;1561;42.666;23.392;2023-07-13T15:28:00;10.65;;;8.02;;